Time;durP1;ratioP1;P1;durP2;ratioP2;P2;SDS_P1;SDS_P2;PMS_P1;PMS_P2;Temp;Humidity;BMP_temperature;BMP_pressure;BME280_temperature;BME280_humidity;BME280_pressure;Samples;Min_cycle;Max_cycle;Signal;HPM_P1;HPM_P2
2023/03/25 00:01:17;;;;;;;1.73;0.70;;;13.40;50.80;;;;;;5021880;28;20053;-45
2023/03/25 00:03:49;;;;;;;1.30;0.60;;;13.30;50.70;;;;;;5021862;28;20062;-48
2023/03/25 00:06:16;;;;;;;3.10;0.60;;;13.30;50.70;;;;;;5021727;28;20048;-44
2023/03/25 00:08:43;;;;;;;1.38;0.60;;;13.30;50.70;;;;;;5018802;28;20591;-44
2023/03/25 00:11:11;;;;;;;2.05;0.43;;;13.30;50.70;;;;;;5020887;28;20053;-43
2023/03/25 00:13:39;;;;;;;3.80;1.10;;;13.20;50.60;;;;;;5022197;28;20056;-49
2023/03/25 00:16:09;;;;;;;1.88;0.47;;;13.20;50.60;;;;;;5022092;28;20095;-45
2023/03/25 00:18:36;;;;;;;1.70;0.50;;;13.20;50.60;;;;;;5021316;28;20080;-47
2023/03/25 00:21:09;;;;;;;3.03;0.70;;;13.20;50.60;;;;;;5015727;28;20531;-46
2023/03/25 00:23:37;;;;;;;0.73;0.30;;;13.20;50.50;;;;;;5015891;28;20049;-48
2023/03/25 00:26:05;;;;;;;3.70;0.55;;;13.20;50.60;;;;;;5020943;28;20412;-48
2023/03/25 00:28:35;;;;;;;3.70;0.82;;;13.10;50.50;;;;;;5020811;28;20057;-44
2023/03/25 00:31:05;;;;;;;3.60;0.50;;;13.10;50.60;;;;;;5023480;28;20060;-47
2023/03/25 00:33:34;;;;;;;7.90;0.70;;;13.10;50.60;;;;;;5019482;28;20053;-46
2023/03/25 00:36:03;;;;;;;6.90;0.60;;;13.10;50.60;;;;;;5022596;28;20139;-47
2023/03/25 00:38:36;;;;;;;6.32;0.90;;;13.10;50.60;;;;;;5022480;28;20057;-44
2023/03/25 00:41:12;;;;;;;3.97;0.80;;;13.00;50.60;;;;;;5020513;28;20053;-43
2023/03/25 00:43:39;;;;;;;4.30;0.50;;;13.00;50.60;;;;;;5017426;28;20509;-44
2023/03/25 00:46:07;;;;;;;1.48;0.52;;;13.00;50.60;;;;;;5022730;28;20053;-45
2023/03/25 00:48:34;;;;;;;2.65;0.63;;;13.00;50.70;;;;;;5022193;28;20119;-45
2023/03/25 00:51:06;;;;;;;2.42;0.60;;;13.00;50.70;;;;;;5020390;28;20421;-47
2023/03/25 00:53:36;;;;;;;5.15;0.85;;;12.90;50.70;;;;;;5016446;28;20045;-47
2023/03/25 00:56:03;;;;;;;4.97;0.63;;;12.90;50.80;;;;;;5019910;28;20064;-45
2023/03/25 00:58:31;;;;;;;3.72;0.68;;;12.90;50.80;;;;;;5018666;28;20539;-48
2023/03/25 01:00:58;;;;;;;1.65;0.57;;;12.90;50.80;;;;;;5018911;28;20053;-44
2023/03/25 01:03:27;;;;;;;3.60;0.43;;;12.90;50.90;;;;;;5018437;28;20053;-46
2023/03/25 01:05:56;;;;;;;3.90;0.98;;;12.90;50.90;;;;;;5020286;28;20421;-45
2023/03/25 01:08:28;;;;;;;3.45;0.98;;;12.90;50.90;;;;;;5019106;28;20061;-46
2023/03/25 01:10:57;;;;;;;4.50;0.60;;;12.90;51.40;;;;;;5018434;28;20072;-45
2023/03/25 01:13:24;;;;;;;2.00;0.50;;;12.90;50.90;;;;;;5015552;28;20060;-43
2023/03/25 01:15:51;;;;;;;3.92;0.95;;;12.90;50.90;;;;;;5020986;28;20060;-46
2023/03/25 01:18:19;;;;;;;4.65;0.77;;;12.90;51.00;;;;;;5019864;28;20054;-48
2023/03/25 01:20:46;;;;;;;2.90;0.68;;;12.90;50.90;;;;;;5020183;28;20065;-44
2023/03/25 01:23:13;;;;;;;1.55;0.65;;;12.90;50.90;;;;;;5016656;28;20053;-43
2023/03/25 01:25:40;;;;;;;3.03;1.00;;;12.90;50.90;;;;;;5017570;28;20073;-47
2023/03/25 01:28:10;;;;;;;2.28;0.88;;;12.90;50.90;;;;;;5017006;28;20050;-42
2023/03/25 01:30:37;;;;;;;7.70;0.98;;;12.90;50.90;;;;;;5018919;28;20060;-46
2023/03/25 01:33:04;;;;;;;1.98;0.75;;;12.90;50.90;;;;;;5019676;28;20084;-43
2023/03/25 01:35:32;;;;;;;1.85;0.95;;;12.90;50.90;;;;;;5017573;28;20057;-44
2023/03/25 01:37:59;;;;;;;4.32;0.98;;;12.90;50.90;;;;;;5016301;28;20065;-46
2023/03/25 01:40:26;;;;;;;4.22;0.80;;;12.90;51.00;;;;;;5015615;28;20062;-46
2023/03/25 01:42:53;;;;;;;4.57;1.00;;;12.90;51.00;;;;;;5016976;28;20057;-43
2023/03/25 01:45:28;;;;;;;3.00;0.80;;;12.90;51.10;;;;;;5019232;28;20053;-48
2023/03/25 01:48:03;;;;;;;3.00;0.88;;;12.90;51.00;;;;;;5017521;28;20417;-45
2023/03/25 01:50:31;;;;;;;5.22;0.80;;;12.90;51.10;;;;;;5011802;28;20528;-47
2023/03/25 01:53:01;;;;;;;4.10;0.90;;;12.90;51.10;;;;;;5019299;28;20164;-44
2023/03/25 01:55:32;;;;;;;3.40;0.98;;;12.90;51.10;;;;;;5015084;28;20045;-47
2023/03/25 01:58:00;;;;;;;2.70;0.98;;;12.90;51.10;;;;;;5015342;28;20061;-45
2023/03/25 02:00:29;;;;;;;4.10;0.70;;;12.90;51.10;;;;;;5018879;28;20057;-46
2023/03/25 02:02:59;;;;;;;4.72;1.27;;;13.00;51.20;;;;;;5038306;22;20057;-41
2023/03/25 02:05:34;;;;;;;6.13;0.75;;;13.00;51.20;;;;;;5006990;28;20061;-43
2023/03/25 02:08:04;;;;;;;3.95;1.00;;;13.00;51.20;;;;;;5005653;28;20069;-43
2023/03/25 02:10:32;;;;;;;2.85;1.13;;;13.00;51.10;;;;;;5007908;28;20053;-42
2023/03/25 02:13:01;;;;;;;3.97;0.77;;;12.90;51.20;;;;;;5006604;28;20050;-44
2023/03/25 02:15:33;;;;;;;1.42;0.52;;;13.00;51.30;;;;;;5009121;28;20394;-44
2023/03/25 02:18:14;;;;;;;4.90;0.70;;;13.00;51.40;;;;;;5006593;28;20050;-43
2023/03/25 02:21:10;;;;;;;4.22;1.00;;;13.00;51.40;;;;;;5006419;28;20061;-44
2023/03/25 02:23:57;;;;;;;4.13;0.90;;;13.00;51.50;;;;;;5007312;28;20058;-43
2023/03/25 02:26:58;;;;;;;5.60;0.95;;;13.00;51.50;;;;;;5006529;28;20405;-43
2023/03/25 02:29:37;;;;;;;5.45;1.20;;;13.00;51.50;;;;;;5006463;28;20359;-43
2023/03/25 02:32:21;;;;;;;3.47;0.73;;;13.00;51.60;;;;;;5008267;28;20119;-45
2023/03/25 02:35:31;;;;;;;4.43;1.10;;;13.00;51.70;;;;;;5006344;28;20057;-43
2023/03/25 02:38:12;;;;;;;4.00;0.80;;;13.00;51.80;;;;;;5008591;28;20076;-43
2023/03/25 02:40:46;;;;;;;3.17;0.75;;;13.00;51.80;;;;;;5006111;28;20404;-43
2023/03/25 02:43:20;;;;;;;4.68;1.00;;;13.00;51.90;;;;;;5006190;28;20512;-45
2023/03/25 02:45:52;;;;;;;4.82;0.80;;;13.00;51.90;;;;;;5007980;28;21058;-43
2023/03/25 02:48:22;;;;;;;7.38;0.90;;;12.90;51.90;;;;;;5005242;28;20056;-42
2023/03/25 02:50:53;;;;;;;3.65;0.93;;;13.00;52.10;;;;;;5007897;28;20061;-45
2023/03/25 02:53:25;;;;;;;2.53;0.55;;;12.90;52.10;;;;;;5006881;28;20057;-44
2023/03/25 02:55:58;;;;;;;5.15;0.70;;;12.90;52.20;;;;;;5005805;28;20425;-42
2023/03/25 02:58:26;;;;;;;3.03;0.60;;;12.90;52.30;;;;;;5004777;28;20065;-42
2023/03/25 03:00:57;;;;;;;3.55;0.60;;;12.90;52.30;;;;;;5007188;28;20053;-42
2023/03/25 03:03:25;;;;;;;2.40;0.70;;;12.90;52.40;;;;;;4983493;28;20058;-43
2023/03/25 03:05:57;;;;;;;6.60;0.90;;;12.80;52.40;;;;;;4966102;28;20070;-46
2023/03/25 03:08:43;;;;;;;7.20;1.08;;;12.90;52.50;;;;;;4965979;28;20050;-42
2023/03/25 03:11:15;;;;;;;4.22;0.82;;;12.90;52.60;;;;;;4962931;28;20520;-43
2023/03/25 03:13:58;;;;;;;3.13;0.80;;;12.80;52.50;;;;;;4961431;28;20069;-45
2023/03/25 03:16:32;;;;;;;5.07;1.00;;;12.90;52.60;;;;;;4965943;28;20059;-42
2023/03/25 03:19:08;;;;;;;3.00;0.77;;;12.80;52.60;;;;;;4966224;28;20051;-44
2023/03/25 03:21:42;;;;;;;3.03;0.70;;;12.80;52.50;;;;;;4964754;28;20051;-44
2023/03/25 03:24:19;;;;;;;4.50;0.90;;;12.80;52.50;;;;;;4963631;28;20077;-43
2023/03/25 03:26:54;;;;;;;3.42;0.90;;;12.80;52.40;;;;;;4964327;28;20066;-46
2023/03/25 03:29:27;;;;;;;4.43;0.88;;;12.80;52.40;;;;;;4963839;28;20050;-43
2023/03/25 03:32:00;;;;;;;5.68;1.13;;;12.80;52.50;;;;;;4962351;28;20050;-41
2023/03/25 03:34:33;;;;;;;4.00;0.80;;;12.80;52.40;;;;;;4966056;28;20059;-48
2023/03/25 03:37:01;;;;;;;6.07;1.45;;;12.80;52.40;;;;;;4962643;28;20517;-42
2023/03/25 03:39:34;;;;;;;4.18;1.05;;;12.80;52.30;;;;;;4964134;28;20054;-43
2023/03/25 03:42:06;;;;;;;4.70;0.80;;;12.90;52.30;;;;;;4964355;28;20054;-41
2023/03/25 03:44:38;;;;;;;4.93;0.93;;;12.80;52.20;;;;;;4965833;28;20059;-42
2023/03/25 03:47:10;;;;;;;4.97;0.90;;;12.90;52.10;;;;;;4962169;28;20061;-45
2023/03/25 03:49:42;;;;;;;7.70;1.00;;;12.80;52.10;;;;;;4963037;28;20410;-41
2023/03/25 03:52:13;;;;;;;4.07;1.05;;;12.80;52.00;;;;;;4962463;28;20062;-42
2023/03/25 03:54:47;;;;;;;9.25;0.85;;;12.80;52.10;;;;;;4961692;28;20062;-43
2023/03/25 03:57:21;;;;;;;5.60;0.90;;;12.80;52.00;;;;;;4955245;28;20057;-44
2023/03/25 03:59:56;;;;;;;2.58;0.80;;;12.80;51.80;;;;;;4962499;28;20058;-43
2023/03/25 04:02:27;;;;;;;2.58;0.80;;;12.80;51.70;;;;;;4962859;28;20055;-44
2023/03/25 04:04:59;;;;;;;3.63;0.90;;;12.80;51.60;;;;;;4962094;28;20070;-42
2023/03/25 04:07:37;;;;;;;5.63;1.00;;;12.80;51.60;;;;;;4965224;28;20065;-40
2023/03/25 04:10:13;;;;;;;3.95;0.82;;;12.70;51.40;;;;;;4962477;28;20883;-43
2023/03/25 04:12:44;;;;;;;3.53;0.68;;;12.80;51.40;;;;;;4959002;28;20051;-44
2023/03/25 04:15:12;;;;;;;5.43;0.73;;;12.70;51.30;;;;;;4964619;28;20081;-41
2023/03/25 04:17:39;;;;;;;4.05;0.73;;;12.70;51.30;;;;;;4964148;28;20058;-41
2023/03/25 04:20:10;;;;;;;6.45;0.80;;;12.70;51.30;;;;;;4960621;28;20061;-48
2023/03/25 04:22:37;;;;;;;9.30;1.40;;;12.70;51.30;;;;;;4961230;28;20059;-41
2023/03/25 04:25:07;;;;;;;2.97;0.80;;;12.70;51.20;;;;;;4962634;28;20050;-43
2023/03/25 04:27:36;;;;;;;3.10;0.82;;;12.70;51.30;;;;;;4960001;28;20053;-42
2023/03/25 04:30:05;;;;;;;4.22;0.77;;;12.70;51.20;;;;;;4962810;28;20065;-42
2023/03/25 04:32:32;;;;;;;5.28;0.80;;;12.70;51.20;;;;;;4961206;28;20438;-40
2023/03/25 04:35:00;;;;;;;4.78;1.00;;;12.70;51.20;;;;;;4961331;28;20058;-47
2023/03/25 04:37:28;;;;;;;2.65;0.70;;;12.70;51.20;;;;;;4960138;28;20051;-43
2023/03/25 04:39:58;;;;;;;2.80;0.50;;;12.70;51.10;;;;;;4963438;28;20051;-42
2023/03/25 04:42:31;;;;;;;3.45;0.80;;;12.80;51.10;;;;;;4962957;28;20062;-40
2023/03/25 04:44:58;;;;;;;4.20;1.10;;;12.70;51.00;;;;;;4963651;28;20058;-43
2023/03/25 04:47:26;;;;;;;5.55;0.80;;;12.70;51.00;;;;;;4964149;28;20050;-45
2023/03/25 04:49:53;;;;;;;4.25;0.82;;;12.70;50.80;;;;;;4963456;28;20050;-43
2023/03/25 04:52:20;;;;;;;3.92;0.80;;;12.70;50.90;;;;;;4959386;28;20066;-43
2023/03/25 04:54:48;;;;;;;2.25;0.75;;;12.70;50.90;;;;;;4957454;28;20059;-43
2023/03/25 04:57:15;;;;;;;4.65;0.88;;;12.70;50.80;;;;;;4959024;28;20058;-45
2023/03/25 04:59:43;;;;;;;3.90;0.93;;;12.70;50.80;;;;;;4962726;28;20055;-42
2023/03/25 05:02:12;;;;;;;4.63;0.90;;;12.70;50.80;;;;;;4963898;28;20061;-43
2023/03/25 05:04:40;;;;;;;3.05;0.70;;;12.70;50.80;;;;;;4962336;28;20549;-44
2023/03/25 05:07:08;;;;;;;3.45;0.85;;;12.70;50.70;;;;;;4961156;28;20054;-43
2023/03/25 05:09:36;;;;;;;4.20;1.08;;;12.60;50.70;;;;;;4961371;28;20050;-41
2023/03/25 05:12:03;;;;;;;3.42;0.57;;;12.70;50.60;;;;;;4961911;28;20069;-40
2023/03/25 05:14:30;;;;;;;1.52;0.70;;;12.70;50.70;;;;;;4963320;28;20054;-42
2023/03/25 05:16:59;;;;;;;2.60;0.77;;;12.60;50.60;;;;;;4963125;28;20061;-43
2023/03/25 05:19:27;;;;;;;2.80;0.65;;;12.60;50.70;;;;;;4959770;28;20442;-40
2023/03/25 05:21:56;;;;;;;3.33;0.85;;;12.60;50.70;;;;;;4962831;28;20059;-49
2023/03/25 05:24:23;;;;;;;3.70;0.65;;;12.60;50.60;;;;;;4962527;28;20495;-46
2023/03/25 05:26:50;;;;;;;3.78;0.50;;;12.60;50.50;;;;;;4962239;28;20050;-40
2023/03/25 05:29:18;;;;;;;3.63;0.50;;;12.60;50.50;;;;;;4962252;28;20414;-43
2023/03/25 05:31:47;;;;;;;3.03;0.52;;;12.60;50.50;;;;;;4958474;28;20059;-41
2023/03/25 05:34:15;;;;;;;4.32;0.60;;;12.60;50.50;;;;;;4952475;28;20073;-43
2023/03/25 05:36:43;;;;;;;1.60;0.55;;;12.60;50.50;;;;;;4954570;28;20054;-42
2023/03/25 05:39:10;;;;;;;11.85;0.75;;;12.50;50.40;;;;;;4948345;28;20051;-45
2023/03/25 05:41:38;;;;;;;5.47;1.02;;;12.50;50.50;;;;;;4954881;28;20059;-46
2023/03/25 05:44:06;;;;;;;4.43;0.90;;;12.50;50.50;;;;;;4953692;28;20094;-42
2023/03/25 05:46:34;;;;;;;6.40;0.50;;;12.50;50.50;;;;;;4958679;28;20058;-45
2023/03/25 05:49:01;;;;;;;2.72;0.70;;;12.50;50.50;;;;;;4965771;28;20051;-43
2023/03/25 05:51:36;;;;;;;4.03;0.80;;;12.50;50.50;;;;;;4958893;28;21106;-42
2023/03/25 05:54:07;;;;;;;3.28;0.75;;;12.50;50.60;;;;;;4961009;28;20054;-43
2023/03/25 05:56:35;;;;;;;2.92;0.65;;;12.50;50.60;;;;;;4964747;28;20058;-43
2023/03/25 05:59:03;;;;;;;7.55;1.02;;;12.50;50.60;;;;;;4964705;28;20058;-45
2023/03/25 06:01:32;;;;;;;2.72;0.60;;;12.50;50.60;;;;;;4964639;28;20063;-42
2023/03/25 06:04:00;;;;;;;3.38;0.80;;;12.50;50.60;;;;;;4959986;28;20499;-46
2023/03/25 06:06:28;;;;;;;3.05;0.80;;;12.50;50.50;;;;;;4962004;28;20053;-45
2023/03/25 06:08:57;;;;;;;2.90;0.68;;;12.50;50.50;;;;;;4959549;28;20684;-49
2023/03/25 06:11:24;;;;;;;2.85;0.90;;;12.50;50.50;;;;;;4953090;28;20054;-44
2023/03/25 06:13:52;;;;;;;4.10;0.95;;;12.40;50.50;;;;;;4959277;28;20062;-42
2023/03/25 06:16:20;;;;;;;2.33;0.70;;;12.40;50.50;;;;;;4960926;28;20170;-49
2023/03/25 06:18:54;;;;;;;6.45;1.05;;;12.50;50.60;;;;;;4958968;28;20050;-48
2023/03/25 06:21:23;;;;;;;6.25;1.10;;;12.40;50.60;;;;;;4963134;28;20054;-41
2023/03/25 06:23:50;;;;;;;4.25;0.90;;;12.50;50.60;;;;;;4957602;28;20058;-44
2023/03/25 06:26:20;;;;;;;3.67;0.77;;;12.50;50.60;;;;;;4958375;28;20054;-43
2023/03/25 06:28:48;;;;;;;2.60;0.80;;;12.50;50.60;;;;;;4948309;28;20055;-45
2023/03/25 06:31:16;;;;;;;9.10;1.27;;;12.50;50.70;;;;;;4950103;28;20465;-44
2023/03/25 06:33:44;;;;;;;7.57;1.10;;;12.50;50.70;;;;;;4951415;28;20772;-42
2023/03/25 06:36:12;;;;;;;3.17;1.00;;;12.50;50.70;;;;;;4952035;28;20059;-42
2023/03/25 06:38:40;;;;;;;3.95;0.73;;;12.50;50.70;;;;;;4960779;28;20062;-45
2023/03/25 06:41:07;;;;;;;5.65;1.13;;;12.50;50.70;;;;;;4962967;28;20470;-43
2023/03/25 06:43:36;;;;;;;3.83;0.98;;;12.50;50.60;;;;;;4960959;28;20051;-44
2023/03/25 06:46:03;;;;;;;7.63;1.27;;;12.50;50.60;;;;;;4961145;28;20051;-45
2023/03/25 06:48:31;;;;;;;3.15;0.90;;;12.50;50.70;;;;;;4961247;28;20050;-44
2023/03/25 06:50:58;;;;;;;4.60;1.20;;;12.50;50.80;;;;;;4959298;28;20051;-47
2023/03/25 06:53:25;;;;;;;5.82;0.90;;;12.50;50.90;;;;;;4947901;28;20502;-41
2023/03/25 06:55:52;;;;;;;6.60;1.30;;;12.50;50.90;;;;;;4948625;28;20419;-41
2023/03/25 06:58:20;;;;;;;3.50;0.95;;;12.60;50.90;;;;;;4951573;28;20051;-42
2023/03/25 07:00:53;;;;;;;5.30;1.20;;;12.50;50.90;;;;;;4950443;28;20043;-44
2023/03/25 07:03:20;;;;;;;5.57;0.93;;;12.60;51.10;;;;;;4950146;28;20054;-42
2023/03/25 07:05:48;;;;;;;3.80;1.00;;;12.60;51.00;;;;;;4947667;28;20059;-43
2023/03/25 07:08:16;;;;;;;3.97;0.90;;;12.60;50.90;;;;;;4949205;28;20065;-43
2023/03/25 07:10:43;;;;;;;4.10;0.95;;;12.70;51.10;;;;;;4949360;28;20528;-47
2023/03/25 07:13:10;;;;;;;6.40;0.88;;;12.70;51.00;;;;;;4952380;28;20064;-47
2023/03/25 07:15:37;;;;;;;6.70;0.90;;;12.70;50.90;;;;;;4946951;28;20055;-42
2023/03/25 07:18:06;;;;;;;9.05;4.78;;;12.80;50.90;;;;;;4949795;28;20050;-46
2023/03/25 07:20:33;;;;;;;33.95;18.88;;;12.80;50.80;;;;;;4951926;28;20058;-42
2023/03/25 07:23:01;;;;;;;74.63;46.58;;;12.80;50.90;;;;;;4949198;28;20062;-49
2023/03/25 07:25:28;;;;;;;15.57;9.93;;;12.80;51.10;;;;;;4949071;28;20081;-46
2023/03/25 07:27:55;;;;;;;6.95;3.13;;;12.80;51.20;;;;;;4946262;28;20050;-42
2023/03/25 07:30:22;;;;;;;6.72;2.10;;;12.90;51.40;;;;;;4950316;28;20050;-44
2023/03/25 07:32:50;;;;;;;9.70;3.03;;;12.80;51.40;;;;;;4947905;28;20522;-44
2023/03/25 07:35:19;;;;;;;7.18;2.75;;;12.80;51.50;;;;;;4946730;28;20892;-44
2023/03/25 07:37:46;;;;;;;7.68;2.17;;;12.80;51.60;;;;;;4955380;28;20061;-43
2023/03/25 07:40:13;;;;;;;5.30;1.92;;;12.80;51.70;;;;;;4962770;28;20050;-44
2023/03/25 07:42:40;;;;;;;5.63;1.50;;;12.90;51.70;;;;;;4960233;28;20074;-45
2023/03/25 07:45:08;;;;;;;8.82;1.58;;;12.80;51.70;;;;;;4961682;28;20070;-43
2023/03/25 07:47:36;;;;;;;4.78;1.30;;;12.80;51.70;;;;;;4962222;28;20414;-42
2023/03/25 07:50:03;;;;;;;7.28;1.65;;;12.80;51.70;;;;;;4960252;28;20059;-44
2023/03/25 07:52:32;;;;;;;3.85;1.05;;;12.90;51.90;;;;;;4960661;28;20051;-49
2023/03/25 07:54:59;;;;;;;6.88;1.20;;;12.90;52.00;;;;;;4951383;28;20058;-43
2023/03/25 07:57:27;;;;;;;5.80;1.38;;;12.90;52.10;;;;;;4946044;28;20075;-44
2023/03/25 07:59:54;;;;;;;11.77;1.00;;;12.90;52.10;;;;;;4954544;28;20545;-46
2023/03/25 08:02:21;;;;;;;3.80;0.63;;;12.90;51.90;;;;;;4950645;28;20399;-43
2023/03/25 08:04:48;;;;;;;2.45;0.50;;;12.90;51.50;;;;;;4947469;28;20054;-45
2023/03/25 08:07:16;;;;;;;16.35;6.43;;;12.90;51.10;;;;;;4950848;28;20490;-42
2023/03/25 08:09:44;;;;;;;1.13;0.80;;;12.80;50.80;;;;;;4956309;28;20050;-44
2023/03/25 08:12:12;;;;;;;2.65;0.77;;;12.80;50.70;;;;;;4960875;28;20116;-45
2023/03/25 08:14:39;;;;;;;4.30;0.55;;;12.80;50.50;;;;;;4960336;28;20066;-42
2023/03/25 08:17:07;;;;;;;2.85;0.57;;;12.70;50.40;;;;;;4963010;28;20058;-43
2023/03/25 08:19:35;;;;;;;3.00;1.00;;;12.70;50.40;;;;;;4960238;28;20055;-46
2023/03/25 08:22:03;;;;;;;3.58;1.00;;;12.70;50.40;;;;;;4962356;28;20073;-43
2023/03/25 08:24:31;;;;;;;1.98;1.10;;;12.60;50.30;;;;;;4960245;28;20054;-41
2023/03/25 08:27:00;;;;;;;1.95;0.77;;;12.60;50.30;;;;;;4958690;28;20055;-41
2023/03/25 08:29:28;;;;;;;3.45;1.20;;;12.60;50.30;;;;;;4962764;28;20051;-44
2023/03/25 08:31:56;;;;;;;3.30;0.90;;;12.60;50.30;;;;;;4961789;28;20058;-42
2023/03/25 08:34:23;;;;;;;1.55;0.70;;;12.50;50.10;;;;;;4960317;28;20063;-41
2023/03/25 08:36:51;;;;;;;1.88;1.10;;;12.50;50.10;;;;;;4958128;28;20066;-41
2023/03/25 08:39:18;;;;;;;1.75;0.70;;;12.50;50.10;;;;;;4957085;28;20447;-42
2023/03/25 08:41:45;;;;;;;1.63;0.45;;;12.50;50.10;;;;;;4958067;28;20054;-45
2023/03/25 08:44:14;;;;;;;2.25;0.47;;;12.50;50.10;;;;;;4958418;28;20058;-41
2023/03/25 08:46:41;;;;;;;3.28;0.50;;;12.50;50.10;;;;;;4957289;28;20511;-44
2023/03/25 08:49:08;;;;;;;2.53;0.40;;;12.50;50.10;;;;;;4961468;28;20058;-41
2023/03/25 08:51:35;;;;;;;3.45;0.50;;;12.50;50.20;;;;;;4956766;28;20407;-44
2023/03/25 08:54:03;;;;;;;1.15;0.50;;;12.50;50.20;;;;;;4962118;28;20067;-45
2023/03/25 08:56:30;;;;;;;3.05;1.00;;;12.50;50.40;;;;;;4960153;28;20054;-41
2023/03/25 08:58:57;;;;;;;3.80;0.80;;;12.60;50.60;;;;;;4960489;28;20058;-43
2023/03/25 09:01:26;;;;;;;4.35;1.02;;;12.60;50.60;;;;;;4959884;28;20047;-46
2023/03/25 09:03:54;;;;;;;4.18;1.02;;;12.60;50.70;;;;;;4961571;28;20769;-53
2023/03/25 09:06:21;;;;;;;6.65;1.25;;;12.60;50.70;;;;;;4960969;28;20047;-43
2023/03/25 09:08:49;;;;;;;5.38;0.98;;;12.70;50.50;;;;;;4959406;28;20398;-41
2023/03/25 09:11:16;;;;;;;4.25;0.98;;;12.70;50.50;;;;;;4960373;28;20057;-43
2023/03/25 09:13:43;;;;;;;3.40;0.60;;;12.80;50.60;;;;;;4960656;28;20063;-41
2023/03/25 09:16:10;;;;;;;4.18;1.52;;;12.80;50.40;;;;;;4960309;28;20054;-41
2023/03/25 09:18:39;;;;;;;2.58;0.60;;;12.80;50.40;;;;;;4959927;28;20427;-45
2023/03/25 09:21:08;;;;;;;3.65;0.60;;;12.90;50.70;;;;;;4960590;28;20398;-41
2023/03/25 09:23:36;;;;;;;7.13;0.98;;;12.90;50.60;;;;;;4953363;28;20071;-42
2023/03/25 09:26:04;;;;;;;3.92;0.70;;;13.00;50.60;;;;;;4949174;28;20061;-43
2023/03/25 09:28:31;;;;;;;3.97;0.73;;;13.10;50.40;;;;;;4950341;28;20054;-44
2023/03/25 09:30:59;;;;;;;4.15;0.80;;;13.20;50.40;;;;;;4954851;28;20039;-42
2023/03/25 09:33:27;;;;;;;5.78;1.00;;;13.20;50.20;;;;;;4951460;28;20061;-41
2023/03/25 09:35:55;;;;;;;5.00;0.90;;;13.30;50.10;;;;;;4957545;28;20063;-41
2023/03/25 09:38:23;;;;;;;2.60;0.73;;;13.40;50.10;;;;;;4957131;28;20069;-41
2023/03/25 09:40:50;;;;;;;6.65;1.52;;;13.40;50.10;;;;;;4954348;28;20525;-44
2023/03/25 09:43:36;;;;;;;3.10;0.70;;;13.50;49.80;;;;;;4958004;28;20062;-43
2023/03/25 09:46:05;;;;;;;4.20;0.70;;;13.50;49.30;;;;;;4957776;28;20055;-41
2023/03/25 09:48:36;;;;;;;5.95;1.05;;;13.60;49.30;;;;;;4958418;28;20411;-42
2023/03/25 09:51:07;;;;;;;7.55;1.10;;;13.70;49.20;;;;;;4957495;28;20532;-43
2023/03/25 09:53:39;;;;;;;8.55;1.15;;;13.70;49.10;;;;;;4960023;28;20066;-42
2023/03/25 09:56:12;;;;;;;4.25;0.98;;;13.80;49.70;;;;;;4960526;28;20059;-46
2023/03/25 09:58:42;;;;;;;5.43;1.15;;;13.80;49.10;;;;;;4959810;28;20487;-43
2023/03/25 10:01:26;;;;;;;12.70;1.15;;;13.90;49.00;;;;;;4959712;28;20399;-43
2023/03/25 10:04:07;;;;;;;5.97;0.93;;;13.90;48.60;;;;;;4962022;28;20062;-42
2023/03/25 10:06:43;;;;;;;7.90;1.30;;;13.90;47.70;;;;;;4959491;28;22036;-42
2023/03/25 10:09:26;;;;;;;6.40;0.93;;;14.00;48.00;;;;;;4957634;28;20055;-42
2023/03/25 10:12:00;;;;;;;9.60;1.30;;;14.00;48.10;;;;;;4960760;28;20055;-46
2023/03/25 10:14:33;;;;;;;3.58;0.80;;;14.00;48.30;;;;;;4961135;28;20063;-42
2023/03/25 10:17:13;;;;;;;6.55;1.50;;;14.00;48.30;;;;;;4960921;28;20046;-45
2023/03/25 10:19:53;;;;;;;8.75;1.33;;;14.10;48.30;;;;;;4956267;28;20054;-42
2023/03/25 10:22:29;;;;;;;5.07;1.25;;;14.10;48.10;;;;;;4960459;28;20047;-44
2023/03/25 10:25:00;;;;;;;7.90;2.03;;;14.10;48.10;;;;;;4961883;28;20062;-41
2023/03/25 10:27:33;;;;;;;8.63;1.50;;;14.10;48.20;;;;;;4962431;28;20062;-41
2023/03/25 10:30:09;;;;;;;6.70;1.30;;;14.20;48.10;;;;;;4962249;28;20058;-43
2023/03/25 10:32:41;;;;;;;6.85;1.30;;;14.20;47.80;;;;;;4962955;28;20051;-42
2023/03/25 10:35:15;;;;;;;6.68;1.17;;;14.20;47.80;;;;;;4963745;28;20054;-41
2023/03/25 10:37:46;;;;;;;8.30;1.30;;;14.20;47.90;;;;;;4965020;28;20082;-45
2023/03/25 10:40:19;;;;;;;6.25;1.38;;;14.30;48.10;;;;;;4965355;28;20059;-42
2023/03/25 10:43:10;;;;;;;9.70;1.65;;;14.30;47.90;;;;;;4959833;28;20058;-44
2023/03/25 10:45:39;;;;;;;7.18;1.50;;;14.40;47.90;;;;;;4961150;28;20046;-44
2023/03/25 10:48:12;;;;;;;11.30;2.10;;;14.40;47.90;;;;;;4963787;28;20054;-48
2023/03/25 10:50:41;;;;;;;6.53;1.42;;;14.40;47.60;;;;;;4960508;28;20169;-41
2023/03/25 10:53:18;;;;;;;11.40;1.83;;;14.50;48.00;;;;;;4964657;28;20058;-42
2023/03/25 10:55:51;;;;;;;8.32;1.50;;;14.40;48.40;;;;;;4964170;28;20070;-44
2023/03/25 10:58:19;;;;;;;10.40;1.77;;;14.40;48.50;;;;;;4963242;28;20054;-47
2023/03/25 11:00:47;;;;;;;7.18;1.75;;;14.40;48.30;;;;;;4964508;28;20069;-43
2023/03/25 11:03:19;;;;;;;5.63;1.63;;;14.40;48.50;;;;;;4965115;28;20418;-54
2023/03/25 11:05:48;;;;;;;11.38;1.70;;;14.40;48.30;;;;;;4963902;28;20043;-49
2023/03/25 11:08:20;;;;;;;7.13;1.88;;;14.40;48.10;;;;;;4962469;28;20062;-46
2023/03/25 11:10:50;;;;;;;3.60;1.17;;;14.40;48.00;;;;;;4962755;28;20077;-45
2023/03/25 11:13:20;;;;;;;6.93;1.55;;;14.40;47.60;;;;;;4963556;28;20468;-43
2023/03/25 11:15:48;;;;;;;11.07;3.75;;;14.50;47.70;;;;;;4961773;28;20067;-51
2023/03/25 11:18:21;;;;;;;6.78;1.65;;;14.50;48.20;;;;;;4962182;28;20056;-43
2023/03/25 11:20:49;;;;;;;6.80;1.33;;;14.50;47.30;;;;;;4962113;28;20065;-44
2023/03/25 11:23:24;;;;;;;11.38;3.00;;;14.60;47.10;;;;;;4960658;28;20473;-42
2023/03/25 11:25:54;;;;;;;10.60;1.88;;;14.60;47.10;;;;;;4957564;28;20378;-42
2023/03/25 11:28:31;;;;;;;8.43;2.00;;;14.60;47.10;;;;;;4961443;28;20054;-43
2023/03/25 11:31:10;;;;;;;8.18;1.90;;;14.60;47.60;;;;;;4961185;28;20055;-42
2023/03/25 11:33:38;;;;;;;6.78;1.58;;;14.70;46.80;;;;;;4959750;28;20058;-41
2023/03/25 11:36:20;;;;;;;7.90;1.70;;;14.70;46.90;;;;;;4959832;28;20525;-43
2023/03/25 11:38:56;;;;;;;7.38;1.27;;;14.70;46.80;;;;;;4962213;28;20565;-44
2023/03/25 11:41:28;;;;;;;10.63;1.35;;;14.80;46.70;;;;;;4960492;28;20055;-42
2023/03/25 11:43:55;;;;;;;9.15;1.50;;;14.80;46.80;;;;;;4957908;28;20057;-44
2023/03/25 11:46:23;;;;;;;8.15;1.35;;;14.80;46.70;;;;;;4962903;28;20055;-42
2023/03/25 11:48:51;;;;;;;7.65;1.80;;;14.80;46.50;;;;;;4960550;28;20055;-46
2023/03/25 11:51:22;;;;;;;7.78;1.35;;;14.90;46.60;;;;;;4959881;28;20051;-43
2023/03/25 11:53:56;;;;;;;7.25;1.52;;;14.90;46.40;;;;;;4954112;28;20066;-42
2023/03/25 11:56:28;;;;;;;5.60;1.40;;;14.90;45.90;;;;;;4961035;28;20077;-41
2023/03/25 11:58:59;;;;;;;5.25;1.10;;;14.90;45.90;;;;;;4959788;28;20065;-42
2023/03/25 12:01:29;;;;;;;6.82;0.93;;;14.90;46.00;;;;;;4959791;28;20054;-44
2023/03/25 12:04:08;;;;;;;10.13;1.13;;;15.00;46.10;;;;;;4961330;28;20061;-42
2023/03/25 12:06:35;;;;;;;5.28;1.90;;;14.90;45.00;;;;;;4960021;28;20569;-41
2023/03/25 12:09:10;;;;;;;6.30;1.27;;;15.00;45.90;;;;;;4959666;28;20065;-41
2023/03/25 12:11:45;;;;;;;5.38;1.08;;;15.00;46.00;;;;;;4962003;28;20050;-44
2023/03/25 12:14:22;;;;;;;5.82;1.30;;;15.00;46.20;;;;;;4962123;28;20062;-44
2023/03/25 12:16:55;;;;;;;3.70;0.57;;;15.00;46.40;;;;;;4959043;28;20069;-43
2023/03/25 12:19:32;;;;;;;7.15;1.20;;;15.00;46.40;;;;;;4961330;28;20419;-42
2023/03/25 12:22:15;;;;;;;6.15;1.00;;;15.10;46.20;;;;;;4962361;28;20050;-43
2023/03/25 12:25:01;;;;;;;5.15;0.80;;;15.10;45.80;;;;;;4962793;28;20062;-45
2023/03/25 12:27:42;;;;;;;7.90;1.00;;;15.20;45.80;;;;;;4959984;28;20058;-42
2023/03/25 12:30:23;;;;;;;5.00;1.23;;;15.20;45.40;;;;;;4961128;28;20058;-47
2023/03/25 12:32:58;;;;;;;7.40;1.30;;;15.20;45.70;;;;;;4962423;28;20050;-49
2023/03/25 12:35:33;;;;;;;6.45;1.40;;;15.20;46.90;;;;;;4961468;28;20064;-42
2023/03/25 12:38:15;;;;;;;5.47;1.13;;;15.20;47.40;;;;;;4963337;28;20530;-43
2023/03/25 12:40:56;;;;;;;5.13;0.95;;;15.10;47.90;;;;;;4960784;28;20615;-43
2023/03/25 12:43:32;;;;;;;8.38;1.10;;;15.10;47.50;;;;;;4960959;28;20411;-52
2023/03/25 12:46:13;;;;;;;6.60;1.23;;;15.00;47.10;;;;;;4960393;28;20070;-42
2023/03/25 12:48:54;;;;;;;8.52;3.45;;;14.90;46.90;;;;;;4956038;28;20067;-42
2023/03/25 12:51:33;;;;;;;12.57;3.25;;;14.90;46.90;;;;;;4959254;28;20062;-44
2023/03/25 12:54:09;;;;;;;6.72;1.25;;;14.90;47.60;;;;;;4961211;28;20414;-46
2023/03/25 12:56:49;;;;;;;6.10;1.30;;;14.90;46.90;;;;;;4960324;28;20459;-44
2023/03/25 12:59:35;;;;;;;8.88;2.25;;;14.90;47.00;;;;;;4960211;28;20407;-41
2023/03/25 13:02:14;;;;;;;8.13;1.67;;;14.90;46.80;;;;;;4960546;28;20050;-42
2023/03/25 13:04:56;;;;;;;13.32;1.48;;;15.00;46.90;;;;;;4961549;28;20426;-47